createdAt,value
2022-09-11T00:02:25.527Z,17.54
2022-09-11T00:06:30.597Z,17.53
2022-09-11T00:10:38.406Z,17.52
2022-09-11T00:14:42.119Z,17.49
2022-09-11T00:18:47.526Z,17.45
2022-09-11T00:22:51.231Z,17.42
2022-09-11T00:26:54.692Z,17.39
2022-09-11T00:31:02.566Z,17.41
2022-09-11T00:35:08.795Z,17.40
2022-09-11T00:39:13.340Z,17.39
2022-09-11T00:43:18.296Z,17.39
2022-09-11T00:47:21.759Z,17.43
2022-09-11T00:51:30.748Z,17.49
2022-09-11T00:55:38.453Z,17.52
2022-09-11T00:59:45.593Z,17.55
2022-09-11T01:03:49.114Z,17.55
2022-09-11T01:07:56.168Z,17.57
2022-09-11T01:12:06.817Z,17.58
2022-09-11T01:16:19.882Z,17.60
2022-09-11T01:20:32.020Z,17.60
2022-09-11T01:24:55.262Z,17.61
2022-09-11T01:29:05.459Z,17.60
2022-09-11T01:33:18.790Z,17.61
2022-09-11T01:37:26.405Z,17.62
2022-09-11T01:41:35.474Z,17.61
2022-09-11T01:45:42.821Z,17.62
2022-09-11T01:49:51.922Z,17.62
2022-09-11T01:53:59.926Z,17.56
2022-09-11T01:58:08.218Z,17.55
2022-09-11T02:02:15.248Z,17.51
2022-09-11T02:10:33.513Z,17.42
2022-09-11T02:14:41.424Z,17.36
2022-09-11T02:18:56.776Z,17.37
2022-09-11T02:23:00.543Z,17.36
2022-09-11T02:27:07.512Z,17.36
2022-09-11T02:31:11.411Z,17.36
2022-09-11T02:35:17.471Z,17.34
2022-09-11T02:39:36.889Z,17.35
2022-09-11T02:43:52.582Z,17.41
2022-09-11T02:48:07.026Z,17.45
2022-09-11T02:52:21.376Z,17.51
2022-09-11T02:56:31.354Z,17.50
2022-09-11T03:00:35.478Z,17.54
2022-09-11T03:04:38.936Z,17.56
2022-09-11T03:08:43.739Z,17.56
2022-09-11T03:12:47.166Z,17.57
2022-09-11T03:16:50.414Z,17.53
2022-09-11T03:20:53.925Z,17.55
2022-09-11T03:24:59.277Z,17.56
2022-09-11T03:29:02.508Z,17.58
2022-09-11T03:33:05.572Z,17.57
2022-09-11T03:37:09.130Z,17.61
2022-09-11T03:41:13.988Z,17.63
2022-09-11T03:45:17.703Z,17.62
2022-09-11T03:49:21.354Z,17.63
2022-09-11T03:53:24.914Z,17.64
2022-09-11T03:57:30.326Z,17.65
2022-09-11T04:01:33.862Z,17.67
2022-09-11T04:05:37.265Z,17.71
2022-09-11T04:09:40.338Z,17.71
2022-09-11T04:13:45.501Z,17.73
2022-09-11T04:17:49.745Z,17.71
2022-09-11T04:21:53.683Z,17.69
2022-09-11T04:25:56.746Z,17.72
2022-09-11T04:30:01.668Z,17.72
2022-09-11T04:34:05.433Z,17.69
2022-09-11T04:38:09.761Z,17.67
2022-09-11T04:42:13.301Z,17.62
2022-09-11T04:46:19.407Z,17.65
2022-09-11T04:50:22.899Z,17.64
2022-09-11T04:54:26.416Z,17.63
2022-09-11T04:58:29.908Z,17.62
2022-09-11T05:02:34.878Z,17.62
2022-09-11T05:06:38.469Z,17.63
2022-09-11T05:10:42.790Z,17.65
2022-09-11T05:14:46.206Z,17.67
2022-09-11T05:18:53.928Z,17.70
2022-09-11T05:22:57.251Z,17.74
2022-09-11T05:27:00.693Z,17.75
2022-09-11T05:31:13.026Z,17.75
2022-09-11T05:35:18.090Z,17.79
2022-09-11T05:39:21.100Z,17.78
2022-09-11T05:43:24.920Z,17.74
2022-09-11T05:47:28.411Z,17.74
2022-09-11T05:51:36.319Z,17.71
2022-09-11T05:55:39.927Z,17.68
2022-09-11T05:59:43.105Z,17.71
2022-09-11T06:03:48.099Z,17.76
2022-09-11T06:07:52.910Z,17.80
2022-09-11T06:11:57.102Z,17.85
2022-09-11T06:16:00.846Z,17.86
2022-09-11T06:20:04.482Z,17.96
2022-09-11T06:24:10.170Z,18.06
2022-09-11T06:28:13.663Z,18.13
2022-09-11T06:32:17.079Z,18.21
2022-09-11T06:36:21.363Z,18.29
2022-09-11T06:40:26.781Z,18.40
2022-09-11T06:44:30.346Z,18.45
2022-09-11T06:48:34.009Z,18.52
2022-09-11T06:52:37.770Z,18.58
2022-09-11T06:56:42.427Z,18.64
2022-09-11T07:00:45.951Z,18.69
2022-09-11T07:04:49.652Z,18.71
2022-09-11T07:08:54.315Z,18.68
2022-09-11T07:12:58.682Z,18.82
2022-09-11T07:17:02.105Z,18.93
2022-09-11T07:21:09.305Z,19.10
2022-09-11T07:25:12.779Z,19.18
2022-09-11T07:29:18.614Z,19.26
2022-09-11T07:33:23.187Z,19.33
2022-09-11T07:37:26.975Z,19.36
2022-09-11T07:41:31.805Z,19.36
2022-09-11T07:45:36.942Z,19.42
2022-09-11T07:49:40.872Z,19.37
2022-09-11T07:53:46.326Z,19.35
2022-09-11T07:57:51.110Z,19.35
2022-09-11T08:01:56.911Z,19.37
2022-09-11T08:10:26.515Z,19.67
2022-09-11T08:14:31.358Z,19.95
2022-09-11T08:18:37.767Z,20.25
2022-09-11T08:22:42.853Z,20.54
2022-09-11T08:26:48.925Z,20.73
2022-09-11T08:30:58.463Z,20.81
2022-09-11T08:35:02.863Z,20.82
2022-09-11T08:39:06.779Z,20.80
2022-09-11T08:43:21.972Z,20.82
2022-09-11T08:47:29.803Z,20.79
2022-09-11T08:51:34.357Z,20.70
2022-09-11T08:55:40.249Z,20.55
2022-09-11T09:00:07.559Z,20.28
2022-09-11T09:04:30.692Z,19.96
2022-09-11T09:08:48.916Z,19.62
2022-09-11T09:13:00.438Z,19.36
2022-09-11T09:17:08.090Z,19.13
2022-09-11T09:21:16.716Z,18.93
2022-09-11T09:25:24.093Z,18.76
2022-09-11T09:29:37.592Z,18.58
2022-09-11T09:33:45.609Z,18.50
2022-09-11T09:37:49.255Z,18.38
2022-09-11T09:42:21.222Z,18.40
2022-09-11T09:46:36.202Z,18.44
2022-09-11T09:50:42.250Z,18.42
2022-09-11T09:54:50.271Z,18.36
2022-09-11T09:59:03.304Z,18.45
2022-09-11T10:03:21.063Z,18.45
2022-09-11T10:07:25.083Z,18.60
2022-09-11T10:11:30.607Z,18.75
2022-09-11T10:15:40.953Z,18.87
2022-09-11T10:19:45.386Z,19.05
2022-09-11T10:23:52.747Z,19.13
2022-09-11T10:28:02.844Z,19.16
2022-09-11T10:32:07.660Z,19.21
2022-09-11T10:36:12.403Z,19.28
2022-09-11T10:40:24.519Z,19.39
2022-09-11T10:44:30.356Z,19.45
2022-09-11T10:48:35.121Z,19.48
2022-09-11T10:52:51.310Z,19.50
2022-09-11T10:57:13.818Z,19.49
2022-09-11T11:01:17.560Z,19.49
2022-09-11T11:05:28.947Z,19.51
2022-09-11T11:09:51.878Z,19.50
2022-09-11T11:14:09.239Z,19.49
2022-09-11T11:18:24.437Z,19.41
2022-09-11T11:22:49.873Z,19.26
2022-09-11T11:27:10.175Z,19.19
2022-09-11T11:31:28.193Z,19.13
2022-09-11T11:35:37.850Z,19.08
2022-09-11T11:39:58.106Z,19.14
2022-09-11T11:44:04.732Z,19.23
2022-09-11T11:48:14.357Z,19.33
2022-09-11T11:52:31.828Z,19.47
2022-09-11T11:56:42.700Z,19.64
2022-09-11T12:00:55.248Z,19.86
2022-09-11T12:05:01.467Z,20.14
2022-09-11T12:09:06.932Z,20.37
2022-09-11T12:13:17.040Z,20.61
2022-09-11T12:17:26.533Z,20.83
2022-09-11T12:21:44.397Z,21.07
2022-09-11T12:25:51.708Z,21.44
2022-09-11T12:29:59.612Z,21.87
2022-09-11T12:34:03.125Z,22.34
2022-09-11T12:38:20.132Z,22.87
2022-09-11T12:42:48.416Z,23.42
2022-09-11T12:47:20.210Z,23.76
2022-09-11T12:51:27.537Z,23.88
2022-09-11T12:55:35.954Z,23.89
2022-09-11T12:59:42.974Z,23.75
2022-09-11T13:04:03.483Z,23.53
2022-09-11T13:08:15.832Z,23.20
2022-09-11T13:12:53.732Z,22.86
2022-09-11T13:16:58.526Z,22.53
2022-09-11T13:21:15.278Z,22.25
2022-09-11T13:25:20.522Z,22.02
2022-09-11T13:29:27.357Z,21.82
2022-09-11T13:33:32.775Z,21.71
2022-09-11T13:37:42.638Z,21.67
2022-09-11T13:41:48.622Z,21.61
2022-09-11T13:46:11.603Z,21.53
2022-09-11T13:50:18.272Z,21.40
2022-09-11T13:54:29.893Z,21.23
2022-09-11T13:58:36.272Z,21.01
2022-09-11T14:02:50.675Z,20.86
2022-09-11T14:11:15.888Z,20.93
2022-09-11T14:15:26.800Z,21.18
2022-09-11T14:19:33.890Z,21.45
2022-09-11T14:23:44.570Z,21.65
2022-09-11T14:27:49.633Z,21.74
2022-09-11T14:31:53.963Z,21.82
2022-09-11T14:36:07.858Z,21.84
2022-09-11T14:40:17.737Z,21.73
2022-09-11T14:44:22.667Z,21.63
2022-09-11T14:48:27.611Z,21.46
2022-09-11T14:52:31.200Z,21.36
2022-09-11T14:56:34.850Z,21.23
2022-09-11T15:00:40.010Z,21.13
2022-09-11T15:04:43.276Z,21.06
2022-09-11T15:08:47.292Z,21.08
2022-09-11T15:12:51.082Z,21.13
2022-09-11T15:16:58.662Z,21.20
2022-09-11T15:21:01.854Z,21.25
2022-09-11T15:25:05.776Z,21.34
2022-09-11T15:29:10.180Z,21.45
2022-09-11T15:33:15.123Z,21.56
2022-09-11T15:37:18.885Z,21.67
2022-09-11T15:41:23.139Z,21.68
2022-09-11T15:45:26.636Z,21.67
2022-09-11T15:49:32.413Z,21.55
2022-09-11T15:53:36.703Z,21.46
2022-09-11T15:57:40.417Z,21.37
2022-09-11T16:01:44.632Z,21.30
2022-09-11T16:05:49.586Z,21.32
2022-09-11T16:09:53.197Z,21.35
2022-09-11T16:13:56.728Z,21.41
2022-09-11T16:18:00.334Z,21.46
2022-09-11T16:22:07.116Z,21.52
2022-09-11T16:26:12.579Z,21.53
2022-09-11T16:30:41.727Z,21.51
2022-09-11T16:34:39.975Z,21.47
2022-09-11T16:38:45.337Z,21.36
2022-09-11T16:42:48.538Z,21.18
2022-09-11T16:46:52.474Z,21.05
2022-09-11T16:50:57.631Z,20.87
2022-09-11T16:55:02.672Z,20.71
2022-09-11T16:59:07.035Z,20.49
2022-09-11T17:03:10.465Z,20.31
2022-09-11T17:07:14.008Z,20.14
2022-09-11T17:11:21.617Z,19.97
2022-09-11T17:15:25.887Z,19.83
2022-09-11T17:19:28.969Z,19.69
2022-09-11T17:23:33.193Z,19.55
2022-09-11T17:27:38.342Z,19.46
2022-09-11T17:31:42.146Z,19.35
2022-09-11T17:35:45.723Z,19.26
2022-09-11T17:39:48.864Z,19.17
2022-09-11T17:43:53.910Z,19.12
2022-09-11T17:47:57.637Z,19.08
2022-09-11T17:52:01.190Z,19.05
2022-09-11T17:56:06.794Z,19.07
2022-09-11T18:00:13.380Z,19.08
2022-09-11T18:04:19.908Z,19.09
2022-09-11T18:08:23.906Z,19.09
2022-09-11T18:12:29.164Z,19.10
2022-09-11T18:16:34.157Z,19.11
2022-09-11T18:20:37.604Z,19.12
2022-09-11T18:24:41.105Z,19.11
2022-09-11T18:28:45.151Z,19.14
2022-09-11T18:32:50.505Z,19.17
2022-09-11T18:36:54.355Z,19.19
2022-09-11T18:41:00.169Z,19.17
2022-09-11T18:45:03.719Z,19.14
2022-09-11T18:49:09.048Z,19.16
2022-09-11T18:53:13.428Z,19.16
2022-09-11T18:57:16.489Z,19.13
2022-09-11T19:01:22.905Z,19.11
2022-09-11T19:05:28.414Z,19.07
2022-09-11T19:09:32.279Z,19.05
2022-09-11T19:13:36.433Z,19.00
2022-09-11T19:17:40.346Z,18.94
2022-09-11T19:21:47.813Z,18.92
2022-09-11T19:25:50.944Z,18.87
2022-09-11T19:29:55.610Z,18.83
2022-09-11T19:34:01.809Z,18.78
2022-09-11T19:38:07.641Z,18.74
2022-09-11T19:42:11.484Z,18.72
2022-09-11T19:46:18.411Z,18.69
2022-09-11T19:50:23.362Z,18.69
2022-09-11T19:54:28.236Z,18.66
2022-09-11T19:58:32.164Z,18.62
2022-09-11T20:02:35.920Z,18.55
2022-09-11T20:06:39.886Z,18.48
2022-09-11T20:10:47.337Z,18.47
2022-09-11T20:14:51.170Z,18.43
2022-09-11T20:18:56.569Z,18.43
2022-09-11T20:23:00.801Z,18.41
2022-09-11T20:27:07.037Z,18.41
2022-09-11T20:31:14.575Z,18.39
2022-09-11T20:35:18.827Z,18.39
2022-09-11T20:39:23.359Z,18.39
2022-09-11T20:43:28.847Z,18.40
2022-09-11T20:47:31.893Z,18.39
2022-09-11T20:51:35.748Z,18.37
2022-09-11T20:55:38.688Z,18.34
2022-09-11T20:59:44.404Z,18.28
2022-09-11T21:03:49.045Z,18.17
2022-09-11T21:07:52.961Z,18.14
2022-09-11T21:11:56.417Z,18.07
2022-09-11T21:16:01.434Z,17.99
2022-09-11T21:20:05.170Z,17.91
2022-09-11T21:24:12.473Z,17.85
2022-09-11T21:28:15.615Z,17.79
2022-09-11T21:32:20.615Z,17.74
2022-09-11T21:36:24.390Z,17.67
2022-09-11T21:40:27.312Z,17.60
2022-09-11T21:44:30.377Z,17.57
2022-09-11T21:48:36.805Z,17.56
2022-09-11T21:52:39.766Z,17.56
2022-09-11T21:56:46.271Z,17.53
2022-09-11T22:00:50.675Z,17.57
2022-09-11T22:04:55.389Z,17.58
2022-09-11T22:08:59.102Z,17.58
2022-09-11T22:13:02.488Z,17.60
2022-09-11T22:17:06.221Z,17.61
2022-09-11T22:21:12.253Z,17.63
2022-09-11T22:25:15.729Z,17.63
2022-09-11T22:29:19.007Z,17.62
2022-09-11T22:33:22.452Z,17.63
2022-09-11T22:37:26.801Z,17.63
2022-09-11T22:41:30.239Z,17.63
2022-09-11T22:45:34.045Z,17.66
2022-09-11T22:49:37.412Z,17.67
2022-09-11T22:53:42.621Z,17.70
2022-09-11T22:57:46.136Z,17.72
2022-09-11T23:01:49.386Z,17.72
2022-09-11T23:06:14.433Z,17.73
2022-09-11T23:10:21.527Z,17.74
2022-09-11T23:14:24.574Z,17.73
2022-09-11T23:18:29.101Z,17.67
2022-09-11T23:22:32.871Z,17.69
2022-09-11T23:26:37.712Z,17.69
2022-09-11T23:30:41.426Z,17.65
2022-09-11T23:34:44.626Z,17.61
2022-09-11T23:38:49.752Z,17.56
2022-09-11T23:42:54.100Z,17.50
2022-09-11T23:46:57.827Z,17.51
2022-09-11T23:51:01.891Z,17.49
2022-09-11T23:55:05.471Z,17.47
2022-09-11T23:59:10.261Z,17.51
